Time;durP1;ratioP1;P1;durP2;ratioP2;P2;SDS_P1;SDS_P2;PMS_P1;PMS_P2;Temp;Humidity;BMP_temperature;BMP_pressure;BME280_temperature;BME280_humidity;BME280_pressure;Samples;Min_cycle;Max_cycle;Signal;HPM_P1;HPM_P2
2021/07/13 00:01:26;;;;;;;;;;;;;;;19.32;85.91;99910.00;126828;1087;103096;-82
2021/07/13 00:04:14;;;;;;;;;;;;;;;19.36;85.86;99907.13;126804;1087;103310;-83
2021/07/13 00:07:07;;;;;;;;;;;;;;;19.43;85.84;99900.44;126924;1085;102956;-83
2021/07/13 00:09:54;;;;;;;;;;;;;;;19.48;85.66;99898.29;126740;1087;102833;-83
2021/07/13 00:17:06;;;;;;;;;;;;;;;19.39;84.52;99888.38;126972;1087;103037;-83
2021/07/13 00:19:54;;;;;;;;;;;;;;;19.40;85.28;99887.45;126932;1087;102919;-83
2021/07/13 00:22:42;;;;;;;;;;;;;;;19.46;85.22;99885.18;126777;1087;102901;-83
2021/07/13 00:25:31;;;;;;;;;;;;;;;19.52;85.15;99886.52;126883;1087;102831;-83
2021/07/13 00:28:18;;;;;;;;;;;;;;;19.55;84.88;99892.45;126817;1087;102858;-83
2021/07/13 00:31:06;;;;;;;;;;;;;;;19.55;84.94;99900.38;126883;1087;102861;-83
2021/07/13 00:33:55;;;;;;;;;;;;;;;19.51;84.23;99903.34;126823;1087;102994;-82
2021/07/13 00:36:43;;;;;;;;;;;;;;;19.41;84.39;99918.23;126929;1087;102981;-82
2021/07/13 00:39:33;;;;;;;;;;;;;;;19.32;84.17;99910.00;126760;1087;102882;-81
2021/07/13 00:42:21;;;;;;;;;;;;;;;19.25;84.33;99903.48;126855;1087;103293;-82
2021/07/13 00:45:09;;;;;;;;;;;;;;;19.20;84.83;99910.05;126776;1087;103361;-82
2021/07/13 00:47:57;;;;;;;;;;;;;;;19.14;84.52;99911.34;126848;1087;102920;-82
2021/07/13 00:50:45;;;;;;;;;;;;;;;19.13;84.72;99925.52;126798;1087;101917;-82
2021/07/13 00:53:32;;;;;;;;;;;;;;;19.12;84.91;99922.99;126860;1087;102960;-82
2021/07/13 00:56:21;;;;;;;;;;;;;;;19.16;84.79;99932.38;126859;1087;102949;-82
2021/07/13 00:59:10;;;;;;;;;;;;;;;19.15;84.60;99955.33;126859;1087;102882;-82
2021/07/13 01:01:58;;;;;;;;;;;;;;;19.11;85.02;99985.59;126897;1085;101747;-82
2021/07/13 01:04:50;;;;;;;;;;;;;;;19.05;84.06;99986.04;126757;1087;102855;-82
2021/07/13 01:07:57;;;;;;;;;;;;;;;19.02;83.03;99963.29;126840;1087;102847;-82
2021/07/13 01:11:00;;;;;;;;;;;;;;;19.02;82.18;99967.73;126752;1087;102710;-82
2021/07/13 01:13:48;;;;;;;;;;;;;;;19.02;81.80;99959.80;126897;1087;102970;-82
2021/07/13 01:16:36;;;;;;;;;;;;;;;19.04;81.88;99955.28;126833;1087;102874;-81
2021/07/13 01:19:35;;;;;;;;;;;;;;;19.05;81.22;99949.03;126901;1087;101768;-81
2021/07/13 01:22:27;;;;;;;;;;;;;;;19.06;81.29;99937.51;126732;1087;102970;-82
2021/07/13 01:25:34;;;;;;;;;;;;;;;19.10;81.26;99925.75;126919;1087;102937;-81
2021/07/13 01:28:23;;;;;;;;;;;;;;;19.18;81.42;99923.38;126858;1087;102962;-82
2021/07/13 01:31:16;;;;;;;;;;;;;;;19.22;80.67;99924.87;126981;1085;102844;-81
2021/07/13 01:34:07;;;;;;;;;;;;;;;19.24;80.13;99922.95;126822;1087;103294;-81
2021/07/13 01:36:56;;;;;;;;;;;;;;;19.23;79.73;99902.76;126892;1087;103055;-81
2021/07/13 01:39:44;;;;;;;;;;;;;;;19.29;79.72;99889.08;126795;1087;101879;-82
2021/07/13 01:42:31;;;;;;;;;;;;;;;19.38;79.88;99902.56;126905;1086;101690;-81
2021/07/13 01:45:20;;;;;;;;;;;;;;;19.44;79.26;99902.97;126820;1087;102994;-82
2021/07/13 01:48:10;;;;;;;;;;;;;;;19.49;79.12;99910.55;126913;1087;102845;-82
2021/07/13 01:50:58;;;;;;;;;;;;;;;19.57;78.83;99913.52;126733;1087;102836;-81
2021/07/13 01:53:47;;;;;;;;;;;;;;;19.63;78.51;99918.34;126852;1086;102864;-83
2021/07/13 01:56:38;;;;;;;;;;;;;;;19.67;78.61;99917.15;126864;1087;102850;-84
2021/07/13 01:59:27;;;;;;;;;;;;;;;19.72;78.37;99912.34;126776;1087;102853;-84
2021/07/13 02:02:17;;;;;;;;;;;;;;;19.76;78.17;99897.11;126911;1087;103008;-82
2021/07/13 02:05:06;;;;;;;;;;;;;;;19.79;78.58;99876.55;126810;1087;102841;-82
2021/07/13 02:07:58;;;;;;;;;;;;;;;19.87;79.07;99875.95;126893;1087;103090;-82
2021/07/13 02:10:46;;;;;;;;;;;;;;;19.97;78.59;99895.47;126836;1087;102895;-82
2021/07/13 02:13:33;;;;;;;;;;;;;;;20.04;78.65;99879.95;126936;1087;102854;-81
2021/07/13 02:16:21;;;;;;;;;;;;;;;20.11;78.31;99867.94;126822;1087;102915;-82
2021/07/13 02:19:09;;;;;;;;;;;;;;;20.15;78.40;99858.79;126848;1087;102933;-82
2021/07/13 02:21:57;;;;;;;;;;;;;;;20.22;78.80;99836.16;126765;1087;102879;-82
2021/07/13 02:24:45;;;;;;;;;;;;;;;20.33;79.39;99820.27;126902;1087;101903;-82
2021/07/13 02:27:33;;;;;;;;;;;;;;;20.44;79.16;99827.38;126891;1087;102988;-82
2021/07/13 02:30:22;;;;;;;;;;;;;;;20.48;78.78;99827.03;126898;1087;102847;-82
2021/07/13 02:33:14;;;;;;;;;;;;;;;20.51;78.49;99831.24;126763;1087;102832;-82
2021/07/13 02:36:03;;;;;;;;;;;;;;;20.59;78.32;99839.41;126872;1087;102900;-82
2021/07/13 02:38:52;;;;;;;;;;;;;;;20.62;77.98;99875.41;126907;1086;103316;-82
2021/07/13 02:41:40;;;;;;;;;;;;;;;20.54;76.58;100002.36;126821;1087;103390;-82
2021/07/13 02:44:32;;;;;;;;;;;;;;;20.08;76.73;100042.88;126873;1087;102954;-81
2021/07/13 02:47:19;;;;;;;;;;;;;;;19.63;75.55;100004.80;126799;1087;101805;-82
2021/07/13 02:50:08;;;;;;;;;;;;;;;19.37;76.43;100025.16;126962;1087;102844;-82
2021/07/13 02:52:57;;;;;;;;;;;;;;;19.15;76.76;100008.20;126813;1087;103014;-82
2021/07/13 02:55:46;;;;;;;;;;;;;;;19.07;77.48;100026.42;126827;1087;103374;-84
2021/07/13 02:58:35;;;;;;;;;;;;;;;18.93;78.40;99979.81;126831;1087;101437;-82
2021/07/13 03:01:24;;;;;;;;;;;;;;;18.83;78.84;99986.69;126915;1086;102871;-82
2021/07/13 03:04:12;;;;;;;;;;;;;;;18.67;78.83;99994.88;126813;1087;101877;-82
2021/07/13 03:07:00;;;;;;;;;;;;;;;18.58;79.65;99986.69;126921;1087;102885;-82
2021/07/13 03:09:49;;;;;;;;;;;;;;;18.52;80.31;99971.28;126809;1087;102967;-82
2021/07/13 03:12:37;;;;;;;;;;;;;;;18.42;79.92;99989.55;126834;1087;102972;-83
2021/07/13 03:15:27;;;;;;;;;;;;;;;18.19;79.88;99990.27;126757;1087;102901;-82
2021/07/13 03:18:15;;;;;;;;;;;;;;;18.15;81.20;99963.25;126902;1087;102840;-82
2021/07/13 03:21:04;;;;;;;;;;;;;;;18.08;81.44;99957.52;126864;1085;102871;-82
2021/07/13 03:23:59;;;;;;;;;;;;;;;17.97;81.57;99944.22;126806;1087;102875;-82
2021/07/13 03:26:47;;;;;;;;;;;;;;;18.07;82.84;99952.34;126896;1087;102920;-82
2021/07/13 03:29:36;;;;;;;;;;;;;;;18.20;83.11;99949.73;126760;1087;102972;-82
2021/07/13 03:32:24;;;;;;;;;;;;;;;18.27;83.34;99937.78;126937;1087;103240;-83
2021/07/13 03:35:12;;;;;;;;;;;;;;;18.31;83.38;99926.05;126812;1087;102967;-82
2021/07/13 03:38:00;;;;;;;;;;;;;;;18.34;83.41;99916.16;126951;1087;101063;-82
2021/07/13 03:40:49;;;;;;;;;;;;;;;18.43;83.52;99904.94;126840;1087;102957;-83
2021/07/13 03:43:37;;;;;;;;;;;;;;;18.54;82.92;99901.55;126892;1087;102991;-83
2021/07/13 03:46:25;;;;;;;;;;;;;;;18.69;82.44;99892.58;126801;1087;103014;-82
2021/07/13 03:49:13;;;;;;;;;;;;;;;18.89;83.45;99895.59;126854;1087;102944;-84
2021/07/13 03:52:01;;;;;;;;;;;;;;;19.06;83.17;99897.86;126817;1086;103344;-84
2021/07/13 03:54:49;;;;;;;;;;;;;;;19.17;82.79;99889.97;126818;1087;103018;-84
2021/07/13 03:57:36;;;;;;;;;;;;;;;19.20;82.96;99884.45;126730;1087;102843;-84
2021/07/13 04:00:27;;;;;;;;;;;;;;;19.35;82.29;99871.91;126876;1087;102847;-84
2021/07/13 04:03:14;;;;;;;;;;;;;;;19.45;81.83;99872.92;126827;1087;102916;-83
2021/07/13 04:06:02;;;;;;;;;;;;;;;19.53;81.10;99869.69;126845;1087;102921;-84
2021/07/13 04:08:50;;;;;;;;;;;;;;;19.60;81.08;99870.96;126920;1086;101686;-83
2021/07/13 04:11:41;;;;;;;;;;;;;;;19.61;79.97;99870.84;126758;1087;102901;-84
2021/07/13 04:14:28;;;;;;;;;;;;;;;19.66;80.05;99859.91;126880;1087;102878;-83
2021/07/13 04:17:17;;;;;;;;;;;;;;;19.74;79.67;99854.86;126775;1086;102839;-84
2021/07/13 04:20:06;;;;;;;;;;;;;;;19.82;79.27;99844.55;126799;1087;103023;-83
2021/07/13 04:22:53;;;;;;;;;;;;;;;19.92;79.32;99834.92;126760;1087;103821;-83
2021/07/13 04:25:42;;;;;;;;;;;;;;;20.02;79.00;99820.98;126836;1087;102865;-83
2021/07/13 04:28:32;;;;;;;;;;;;;;;20.12;79.17;99824.61;126779;1087;102693;-83
2021/07/13 04:31:20;;;;;;;;;;;;;;;20.21;79.84;99834.47;126855;1087;102866;-82
2021/07/13 04:34:09;;;;;;;;;;;;;;;20.26;79.45;99848.18;126753;1087;102855;-82
2021/07/13 04:36:58;;;;;;;;;;;;;;;20.31;79.66;99835.44;126849;1087;102909;-82
2021/07/13 04:39:45;;;;;;;;;;;;;;;20.32;79.41;99831.83;126762;1087;102886;-82
2021/07/13 04:42:33;;;;;;;;;;;;;;;20.29;79.36;99824.13;126892;1085;102795;-83
2021/07/13 04:45:21;;;;;;;;;;;;;;;20.31;79.81;99778.98;126859;1086;103099;-83
2021/07/13 04:48:08;;;;;;;;;;;;;;;20.30;79.98;99774.66;126784;1086;102924;-83
2021/07/13 04:50:56;;;;;;;;;;;;;;;20.23;79.99;99783.07;126850;1086;101408;-83
2021/07/13 04:53:45;;;;;;;;;;;;;;;20.29;80.38;99768.52;126712;1087;102974;-82
2021/07/13 04:56:33;;;;;;;;;;;;;;;20.39;80.46;99756.20;126858;1087;102919;-82
2021/07/13 04:59:20;;;;;;;;;;;;;;;20.42;80.39;99737.44;126738;1087;102872;-82
2021/07/13 05:02:09;;;;;;;;;;;;;;;20.44;80.08;99714.31;126866;1087;102990;-82
2021/07/13 05:04:58;;;;;;;;;;;;;;;20.61;80.93;99709.45;126776;1087;103307;-82
2021/07/13 05:07:47;;;;;;;;;;;;;;;20.85;80.69;99731.30;126870;1087;102953;-83
2021/07/13 05:10:34;;;;;;;;;;;;;;;21.02;80.18;99736.03;126702;1087;102939;-82
2021/07/13 05:13:22;;;;;;;;;;;;;;;21.25;80.51;99752.70;126897;1087;102641;-82
2021/07/13 05:16:09;;;;;;;;;;;;;;;21.40;79.59;99766.48;126829;1085;102846;-82
2021/07/13 05:18:59;;;;;;;;;;;;;;;21.54;79.24;99771.43;126874;1088;102936;-82
2021/07/13 05:22:01;;;;;;;;;;;;;;;21.62;79.10;99766.33;126908;1087;102770;-82
2021/07/13 05:24:51;;;;;;;;;;;;;;;21.70;78.63;99769.16;126912;1085;102988;-83
2021/07/13 05:27:40;;;;;;;;;;;;;;;21.79;78.91;99761.39;126904;1090;102740;-83
2021/07/13 05:30:28;;;;;;;;;;;;;;;21.89;78.35;99755.13;126832;1087;101111;-83
2021/07/13 05:33:16;;;;;;;;;;;;;;;22.02;78.24;99744.29;126880;1087;102836;-83
2021/07/13 05:36:04;;;;;;;;;;;;;;;22.19;78.15;99741.02;126733;1087;102853;-83
2021/07/13 05:38:55;;;;;;;;;;;;;;;22.41;78.16;99739.11;126867;1085;102837;-83
2021/07/13 05:41:44;;;;;;;;;;;;;;;22.56;77.03;99735.08;126839;1087;102899;-83
2021/07/13 05:44:31;;;;;;;;;;;;;;;22.62;76.56;99745.15;126900;1087;105591;-83
2021/07/13 05:47:18;;;;;;;;;;;;;;;22.65;75.66;99755.53;126959;1086;103306;-83
2021/07/13 05:50:08;;;;;;;;;;;;;;;22.82;76.10;99764.67;126905;1085;103400;-82
2021/07/13 05:52:57;;;;;;;;;;;;;;;23.04;76.07;99776.85;126789;1087;102766;-83
2021/07/13 05:55:45;;;;;;;;;;;;;;;23.85;76.61;99794.11;126865;1087;102875;-82
2021/07/13 05:58:32;;;;;;;;;;;;;;;25.64;74.79;99784.52;126809;1086;102863;-82
2021/07/13 06:01:20;;;;;;;;;;;;;;;26.76;70.82;99785.25;126914;1087;102855;-82
2021/07/13 06:04:08;;;;;;;;;;;;;;;28.24;69.28;99783.13;126841;1087;102884;-83
2021/07/13 06:06:56;;;;;;;;;;;;;;;29.15;65.85;99795.88;126845;1087;102997;-83
2021/07/13 06:09:44;;;;;;;;;;;;;;;29.06;63.88;99785.37;126937;1087;103398;-83
2021/07/13 06:12:32;;;;;;;;;;;;;;;29.08;64.62;99783.34;126841;1087;103010;-83
2021/07/13 06:15:23;;;;;;;;;;;;;;;30.56;63.02;99785.17;127021;1087;102879;-82
2021/07/13 06:18:11;;;;;;;;;;;;;;;32.13;59.43;99789.45;126856;1085;102847;-83
2021/07/13 06:20:59;;;;;;;;;;;;;;;32.25;56.72;99787.03;126992;1087;103026;-83
2021/07/13 06:23:47;;;;;;;;;;;;;;;31.88;55.28;99787.45;126862;1087;102720;-82
2021/07/13 06:26:35;;;;;;;;;;;;;;;31.09;54.59;99796.54;127049;1087;101879;-82
2021/07/13 06:29:23;;;;;;;;;;;;;;;29.95;54.24;99814.13;126889;1087;102916;-82
2021/07/13 06:32:11;;;;;;;;;;;;;;;28.80;54.79;99820.59;126985;1087;103306;-82
2021/07/13 06:34:59;;;;;;;;;;;;;;;27.75;56.84;99827.15;126875;1087;102881;-82
2021/07/13 06:37:46;;;;;;;;;;;;;;;27.04;58.08;99845.52;126925;1087;102735;-82
2021/07/13 06:40:34;;;;;;;;;;;;;;;26.34;59.60;99852.92;126973;1087;102890;-82
2021/07/13 06:43:22;;;;;;;;;;;;;;;25.68;61.08;99840.19;126983;1087;102970;-81
2021/07/13 06:46:11;;;;;;;;;;;;;;;25.22;62.42;99836.77;126864;1085;102863;-81
2021/07/13 06:49:01;;;;;;;;;;;;;;;24.99;63.32;99828.38;126805;1087;102700;-80
2021/07/13 06:51:49;;;;;;;;;;;;;;;25.18;63.58;99829.22;126925;1087;101686;-82
2021/07/13 06:54:37;;;;;;;;;;;;;;;25.45;62.96;99823.77;126801;1087;103018;-82
2021/07/13 06:57:25;;;;;;;;;;;;;;;25.37;63.26;99810.37;126911;1087;102991;-82
2021/07/13 07:00:13;;;;;;;;;;;;;;;25.24;63.09;99840.11;126752;1087;102943;-82
2021/07/13 07:03:01;;;;;;;;;;;;;;;24.99;62.56;99838.19;126864;1086;102922;-82
2021/07/13 07:05:49;;;;;;;;;;;;;;;24.68;63.58;99846.52;126823;1087;102888;-81
2021/07/13 07:08:36;;;;;;;;;;;;;;;24.38;64.07;99854.80;126884;1087;102843;-81
2021/07/13 07:11:30;;;;;;;;;;;;;;;23.97;64.50;99854.22;126748;1087;102858;-81
2021/07/13 07:14:17;;;;;;;;;;;;;;;23.59;65.62;99863.13;126872;1087;102880;-81
2021/07/13 07:17:05;;;;;;;;;;;;;;;23.26;66.08;99861.70;126787;1087;103159;-82
2021/07/13 07:19:56;;;;;;;;;;;;;;;22.98;67.43;99857.17;126839;1087;102872;-81
2021/07/13 07:22:44;;;;;;;;;;;;;;;22.83;67.88;99838.14;126893;1087;102863;-81
2021/07/13 07:25:33;;;;;;;;;;;;;;;22.78;68.82;99827.86;126848;1087;102869;-81
2021/07/13 07:28:22;;;;;;;;;;;;;;;22.80;68.55;99827.73;126881;1087;102862;-81
2021/07/13 07:31:10;;;;;;;;;;;;;;;22.71;68.70;99800.16;126823;1087;103027;-81
2021/07/13 07:33:57;;;;;;;;;;;;;;;22.64;69.42;99785.75;126916;1087;102924;-81
2021/07/13 07:36:45;;;;;;;;;;;;;;;22.62;70.19;99803.63;126786;1090;102881;-81
2021/07/13 07:39:32;;;;;;;;;;;;;;;22.60;70.17;99813.56;126924;1087;102996;-81
2021/07/13 07:42:20;;;;;;;;;;;;;;;22.55;70.52;99807.82;126925;1087;102845;-81
2021/07/13 07:45:08;;;;;;;;;;;;;;;22.50;70.24;99816.20;126938;1087;102851;-81
2021/07/13 07:47:55;;;;;;;;;;;;;;;22.47;70.23;99779.28;126892;1087;102936;-81
2021/07/13 07:50:43;;;;;;;;;;;;;;;22.64;71.17;99783.09;126915;1087;103338;-81
2021/07/13 07:53:31;;;;;;;;;;;;;;;22.95;70.95;99778.52;126781;1089;101407;-81
2021/07/13 07:56:18;;;;;;;;;;;;;;;23.55;71.06;99773.86;126900;1087;102879;-82
2021/07/13 07:59:06;;;;;;;;;;;;;;;23.94;70.28;99758.63;127009;1087;103320;-81
2021/07/13 08:01:54;;;;;;;;;;;;;;;24.03;69.66;99739.08;126871;1087;101991;-81
2021/07/13 08:04:42;;;;;;;;;;;;;;;24.06;69.36;99751.30;126982;1087;101832;-81
2021/07/13 08:07:29;;;;;;;;;;;;;;;24.06;69.09;99757.46;126855;1087;102897;-81
2021/07/13 08:10:17;;;;;;;;;;;;;;;24.07;68.51;99776.95;126882;1087;102853;-81
2021/07/13 08:13:05;;;;;;;;;;;;;;;24.08;68.13;99779.46;126886;1087;102688;-81
2021/07/13 08:15:54;;;;;;;;;;;;;;;24.17;67.62;99777.72;126947;1087;103001;-81
2021/07/13 08:18:42;;;;;;;;;;;;;;;24.22;67.58;99790.59;126856;1087;101805;-81
2021/07/13 08:21:46;;;;;;;;;;;;;;;24.34;67.05;99800.95;126954;1087;102920;-81
2021/07/13 08:24:34;;;;;;;;;;;;;;;24.35;66.76;99809.78;126826;1087;103033;-81
2021/07/13 08:27:22;;;;;;;;;;;;;;;24.37;66.84;99805.98;126940;1087;102872;-81
2021/07/13 08:30:10;;;;;;;;;;;;;;;24.36;66.52;99803.47;126880;1087;103025;-81
2021/07/13 08:32:57;;;;;;;;;;;;;;;24.23;66.40;99797.60;126930;1087;101868;-81
2021/07/13 08:35:45;;;;;;;;;;;;;;;23.99;66.24;99804.30;126874;1087;102967;-81
2021/07/13 08:38:32;;;;;;;;;;;;;;;23.68;67.01;99793.03;126980;1087;102960;-81
2021/07/13 08:41:20;;;;;;;;;;;;;;;23.49;67.93;99777.91;126919;1087;102946;-81
2021/07/13 08:44:08;;;;;;;;;;;;;;;23.42;68.51;99808.75;126870;1087;102946;-81
2021/07/13 08:46:57;;;;;;;;;;;;;;;23.27;68.56;99842.09;126996;1087;103004;-81
2021/07/13 08:49:45;;;;;;;;;;;;;;;22.90;69.06;99849.90;126876;1087;102884;-81
2021/07/13 08:52:33;;;;;;;;;;;;;;;22.59;69.73;99849.93;126945;1087;102852;-81
2021/07/13 08:55:22;;;;;;;;;;;;;;;22.39;69.64;99834.06;126896;1087;102871;-81
2021/07/13 08:58:14;;;;;;;;;;;;;;;22.26;69.30;99802.41;126944;1087;102944;-82
2021/07/13 09:01:02;;;;;;;;;;;;;;;22.17;70.21;99841.25;126796;1087;103252;-81
2021/07/13 09:03:58;;;;;;;;;;;;;;;22.04;70.40;99835.28;126988;1087;102854;-81
2021/07/13 09:06:57;;;;;;;;;;;;;;;21.94;70.59;99826.44;126919;1087;102744;-81
2021/07/13 09:09:51;;;;;;;;;;;;;;;21.95;71.48;99812.19;127000;1087;102875;-81
2021/07/13 09:12:38;;;;;;;;;;;;;;;21.98;71.63;99796.83;126908;1087;102890;-81
2021/07/13 09:15:26;;;;;;;;;;;;;;;22.01;72.21;99708.09;126946;1087;103030;-81
2021/07/13 09:18:27;;;;;;;;;;;;;;;22.01;72.83;99706.27;126886;1087;102909;-81
2021/07/13 09:21:16;;;;;;;;;;;;;;;22.19;73.40;99772.90;126799;1087;103364;-83
2021/07/13 09:24:08;;;;;;;;;;;;;;;22.39;72.86;99780.92;126790;1087;103503;-83
2021/07/13 09:26:57;;;;;;;;;;;;;;;22.64;72.39;99787.57;126883;1086;102927;-83
2021/07/13 09:29:48;;;;;;;;;;;;;;;23.04;72.19;99808.77;126906;1087;102833;-83
2021/07/13 09:32:37;;;;;;;;;;;;;;;23.55;72.09;99807.63;126906;1087;102871;-81
2021/07/13 09:35:26;;;;;;;;;;;;;;;23.86;70.96;99800.27;126834;1090;102847;-81
2021/07/13 09:38:13;;;;;;;;;;;;;;;24.24;71.35;99804.64;126780;1085;102791;-83
2021/07/13 09:41:07;;;;;;;;;;;;;;;24.62;70.38;99792.95;126959;1087;102869;-81
2021/07/13 09:44:04;;;;;;;;;;;;;;;25.09;69.54;99790.94;126934;1087;102940;-81
2021/07/13 09:46:52;;;;;;;;;;;;;;;26.01;69.90;99789.60;126963;1087;102997;-81
2021/07/13 09:49:41;;;;;;;;;;;;;;;26.91;68.89;99782.73;126872;1087;102789;-82
2021/07/13 09:52:31;;;;;;;;;;;;;;;27.41;66.06;99793.33;126958;1087;101714;-81
2021/07/13 09:55:19;;;;;;;;;;;;;;;27.57;64.79;99771.89;126942;1087;102914;-80
2021/07/13 09:58:27;;;;;;;;;;;;;;;27.54;62.17;99782.95;126980;1086;102968;-80
2021/07/13 10:01:15;;;;;;;;;;;;;;;27.41;60.52;99787.98;126899;1085;102836;-80
2021/07/13 10:04:03;;;;;;;;;;;;;;;27.26;60.77;99770.91;126953;1087;102843;-80
2021/07/13 10:06:52;;;;;;;;;;;;;;;27.22;60.51;99759.70;126801;1087;102917;-82
2021/07/13 10:09:42;;;;;;;;;;;;;;;27.12;59.68;99767.09;126910;1087;102646;-81
2021/07/13 10:12:31;;;;;;;;;;;;;;;26.88;59.44;99769.69;126893;1087;102850;-80
2021/07/13 10:15:19;;;;;;;;;;;;;;;26.65;58.76;99785.55;126971;1087;102924;-80
2021/07/13 10:18:08;;;;;;;;;;;;;;;26.41;58.90;99792.51;127002;1087;102833;-81
2021/07/13 10:20:56;;;;;;;;;;;;;;;26.24;59.27;99785.39;127025;1086;102868;-81
2021/07/13 10:23:44;;;;;;;;;;;;;;;26.12;59.64;99767.95;127019;1087;102875;-81
2021/07/13 10:26:44;;;;;;;;;;;;;;;26.07;59.94;99780.97;126961;1085;102905;-81
2021/07/13 10:29:36;;;;;;;;;;;;;;;26.14;59.96;99769.46;127078;1087;102917;-81
2021/07/13 10:32:24;;;;;;;;;;;;;;;26.24;59.06;99769.35;126867;1087;101213;-81
2021/07/13 10:35:17;;;;;;;;;;;;;;;26.32;59.62;99768.53;127002;1085;102887;-81
2021/07/13 10:38:23;;;;;;;;;;;;;;;26.48;59.37;99769.45;126903;1087;102866;-81
2021/07/13 10:41:12;;;;;;;;;;;;;;;26.80;59.36;99767.86;127031;1085;102817;-81
2021/07/13 10:44:00;;;;;;;;;;;;;;;27.15;58.46;99773.94;126815;1087;102890;-81
2021/07/13 10:47:07;;;;;;;;;;;;;;;27.36;58.50;99764.39;126893;1087;102722;-81
2021/07/13 10:50:15;;;;;;;;;;;;;;;27.56;56.42;99759.50;126822;1087;102922;-83
2021/07/13 10:53:23;;;;;;;;;;;;;;;27.83;57.75;99746.73;126982;1087;102847;-81
2021/07/13 10:56:28;;;;;;;;;;;;;;;28.16;56.01;99740.23;126901;1087;103213;-81
2021/07/13 10:59:23;;;;;;;;;;;;;;;28.36;54.94;99734.47;126996;1087;102986;-81
2021/07/13 11:02:10;;;;;;;;;;;;;;;28.50;55.27;99733.72;126828;1087;102938;-82
2021/07/13 11:05:19;;;;;;;;;;;;;;;28.55;54.74;99726.00;126917;1087;102843;-81
2021/07/13 11:08:07;;;;;;;;;;;;;;;28.41;53.20;99726.75;126885;1087;104720;-82
2021/07/13 11:11:20;;;;;;;;;;;;;;;28.44;54.26;99721.03;126902;1087;102885;-83
2021/07/13 11:14:11;;;;;;;;;;;;;;;28.67;53.49;99708.45;126795;1087;102907;-82
2021/07/13 11:16:58;;;;;;;;;;;;;;;28.64;52.53;99711.50;126919;1087;102644;-81
2021/07/13 11:19:46;;;;;;;;;;;;;;;28.40;51.81;99717.04;126894;1086;103358;-80
2021/07/13 11:22:36;;;;;;;;;;;;;;;28.15;52.42;99716.28;126963;1087;102865;-80
2021/07/13 11:25:29;;;;;;;;;;;;;;;28.12;53.88;99722.84;126894;1087;103041;-80
2021/07/13 11:28:17;;;;;;;;;;;;;;;28.15;53.71;99721.65;126950;1087;102884;-80
2021/07/13 11:31:06;;;;;;;;;;;;;;;28.18;53.98;99722.13;126839;1085;102858;-80
2021/07/13 11:33:55;;;;;;;;;;;;;;;28.23;53.67;99724.30;126896;1087;102914;-83
2021/07/13 11:36:44;;;;;;;;;;;;;;;28.26;53.32;99722.13;126837;1087;102644;-81
2021/07/13 11:39:34;;;;;;;;;;;;;;;28.25;52.97;99716.91;126911;1087;102946;-81
2021/07/13 11:42:22;;;;;;;;;;;;;;;28.28;54.12;99704.02;126921;1087;102921;-81
2021/07/13 11:45:09;;;;;;;;;;;;;;;28.45;53.61;99707.44;126789;1087;102953;-81
2021/07/13 11:48:01;;;;;;;;;;;;;;;28.51;53.41;99700.52;126878;1085;102862;-81
2021/07/13 11:50:54;;;;;;;;;;;;;;;28.54;53.06;99710.89;126845;1087;102648;-81
2021/07/13 11:53:55;;;;;;;;;;;;;;;28.52;52.36;99702.19;126919;1087;102975;-80
2021/07/13 11:56:45;;;;;;;;;;;;;;;28.56;52.66;99693.63;126866;1087;103428;-81
2021/07/13 11:59:34;;;;;;;;;;;;;;;28.61;53.29;99694.94;126979;1087;102859;-81
2021/07/13 12:02:22;;;;;;;;;;;;;;;28.74;53.48;99695.18;126890;1087;102940;-81
2021/07/13 12:05:18;;;;;;;;;;;;;;;28.92;53.10;99695.73;127024;1087;102876;-81
2021/07/13 12:08:26;;;;;;;;;;;;;;;29.16;52.98;99684.77;126898;1087;102844;-81
2021/07/13 12:11:13;;;;;;;;;;;;;;;29.38;54.04;99680.34;126953;1087;102957;-81
2021/07/13 12:14:02;;;;;;;;;;;;;;;29.78;54.08;99667.48;126835;1087;102870;-81
2021/07/13 12:16:50;;;;;;;;;;;;;;;30.10;53.86;99676.18;126970;1087;102872;-81
2021/07/13 12:19:38;;;;;;;;;;;;;;;30.33;53.89;99676.84;126815;1087;103136;-81
2021/07/13 12:22:26;;;;;;;;;;;;;;;30.63;53.95;99667.67;126916;1087;102840;-81
2021/07/13 12:25:14;;;;;;;;;;;;;;;30.92;52.66;99663.17;126911;1087;102871;-81
2021/07/13 12:28:09;;;;;;;;;;;;;;;31.02;51.00;99650.19;126930;1087;104653;-81
2021/07/13 12:31:08;;;;;;;;;;;;;;;30.83;49.18;99661.63;126856;1087;102978;-81
2021/07/13 12:33:56;;;;;;;;;;;;;;;30.53;49.04;99651.00;126946;1087;102863;-81
2021/07/13 12:36:44;;;;;;;;;;;;;;;30.16;49.54;99643.97;126957;1087;102977;-81
2021/07/13 12:39:32;;;;;;;;;;;;;;;30.07;49.84;99647.81;126836;1087;102967;-82
2021/07/13 12:42:22;;;;;;;;;;;;;;;29.91;49.42;99651.52;126913;1087;102857;-81
2021/07/13 12:45:20;;;;;;;;;;;;;;;29.54;47.96;99643.59;126860;1087;102850;-81
2021/07/13 12:48:08;;;;;;;;;;;;;;;29.25;49.30;99637.16;126904;1087;102840;-81
2021/07/13 12:50:57;;;;;;;;;;;;;;;29.10;49.90;99637.17;126803;1087;103078;-81
2021/07/13 12:53:45;;;;;;;;;;;;;;;28.95;49.69;99638.16;126879;1087;102841;-81
2021/07/13 12:56:34;;;;;;;;;;;;;;;28.75;50.14;99638.64;126803;1087;103121;-81
2021/07/13 12:59:22;;;;;;;;;;;;;;;28.58;50.46;99634.42;126914;1087;103116;-81
2021/07/13 13:02:14;;;;;;;;;;;;;;;28.53;51.38;99634.11;126795;1087;103038;-82
2021/07/13 13:05:02;;;;;;;;;;;;;;;28.57;51.52;99638.95;126922;1087;102976;-81
2021/07/13 13:08:04;;;;;;;;;;;;;;;28.59;52.64;99641.45;126793;1087;102854;-81
2021/07/13 13:10:52;;;;;;;;;;;;;;;28.68;52.21;99643.04;126867;1087;102661;-81
2021/07/13 13:13:43;;;;;;;;;;;;;;;28.72;52.33;99633.61;126781;1087;102956;-81
2021/07/13 13:16:34;;;;;;;;;;;;;;;28.78;52.71;99627.54;126893;1085;102670;-81
2021/07/13 13:19:22;;;;;;;;;;;;;;;28.78;52.10;99629.39;126790;1087;102878;-81
2021/07/13 13:22:09;;;;;;;;;;;;;;;28.77;52.33;99615.14;126887;1086;102857;-81
2021/07/13 13:24:57;;;;;;;;;;;;;;;28.85;52.37;99620.41;126848;1087;102962;-81
2021/07/13 13:27:46;;;;;;;;;;;;;;;28.85;50.92;99611.53;126786;1087;102868;-81
2021/07/13 13:30:33;;;;;;;;;;;;;;;28.80;49.52;99614.77;126844;1087;101859;-81
2021/07/13 13:33:21;;;;;;;;;;;;;;;28.74;51.09;99610.14;126746;1087;102921;-80
2021/07/13 13:36:14;;;;;;;;;;;;;;;28.78;51.38;99605.23;126897;1087;102869;-80
2021/07/13 13:41:52;;;;;;;;;;;;;;;28.81;51.39;99600.33;126903;1085;102841;-81
2021/07/13 13:44:40;;;;;;;;;;;;;;;28.86;50.15;99597.13;126750;1086;103048;-81
2021/07/13 13:47:32;;;;;;;;;;;;;;;28.86;50.40;99595.27;126958;1087;102840;-81
2021/07/13 13:50:20;;;;;;;;;;;;;;;28.78;49.72;99589.97;126767;1087;103353;-81
2021/07/13 13:53:27;;;;;;;;;;;;;;;28.70;49.98;99592.70;126873;1086;102832;-80
2021/07/13 13:56:27;;;;;;;;;;;;;;;28.70;50.24;99595.39;126781;1087;102876;-80
2021/07/13 13:59:16;;;;;;;;;;;;;;;28.73;49.58;99595.05;126870;1087;102924;-80
2021/07/13 14:02:03;;;;;;;;;;;;;;;28.71;49.05;99594.38;126799;1087;102858;-81
2021/07/13 14:04:51;;;;;;;;;;;;;;;28.67;49.66;99587.71;126909;1087;102879;-81
2021/07/13 14:07:38;;;;;;;;;;;;;;;28.61;48.37;99587.61;126709;1087;102844;-81
2021/07/13 14:10:25;;;;;;;;;;;;;;;28.55;49.17;99575.77;126873;1087;102885;-80
2021/07/13 14:13:13;;;;;;;;;;;;;;;28.53;49.78;99581.28;126871;1087;102975;-81
2021/07/13 14:16:03;;;;;;;;;;;;;;;28.58;49.58;99584.28;126876;1087;100510;-80
2021/07/13 14:18:50;;;;;;;;;;;;;;;28.58;49.01;99594.18;126974;1086;102882;-80
2021/07/13 14:21:38;;;;;;;;;;;;;;;28.61;49.00;99587.61;126701;1087;102995;-80
2021/07/13 14:24:26;;;;;;;;;;;;;;;28.69;49.90;99582.16;126869;1087;102875;-81
2021/07/13 14:27:14;;;;;;;;;;;;;;;28.75;49.40;99595.70;126654;1087;102991;-79